createdAt,value
2023-04-01T00:20:02.837Z,21.48
2023-04-01T00:48:43.751Z,21.43
2023-04-01T01:17:33.083Z,21.4
2023-04-01T01:46:11.675Z,21.38
2023-04-01T02:14:59.376Z,21.35
2023-04-01T02:43:49.533Z,21.33
2023-04-01T03:12:39.984Z,21.28
2023-04-01T04:39:04.118Z,21.23
2023-04-01T05:07:42.836Z,21.53
2023-04-01T05:36:24.377Z,21.84
2023-04-01T06:05:17.494Z,21.92
2023-04-01T06:33:47.287Z,21.83
2023-04-01T07:02:35.042Z,21.79
2023-04-01T07:31:32.996Z,21.71
2023-04-01T08:00:07.870Z,21.68
2023-04-01T08:28:57.835Z,21.75
2023-04-01T08:57:45.964Z,21.82
2023-04-01T09:26:47.242Z,22.17
2023-04-01T09:55:42.510Z,22.38
2023-04-01T10:24:30.812Z,22.23
2023-04-01T10:53:09.011Z,22.32
2023-04-01T11:22:05.869Z,22.6
2023-04-01T11:51:01.247Z,22.9
2023-04-01T12:20:02.081Z,22.9
2023-04-01T12:48:56.660Z,22.81
2023-04-01T13:17:45.827Z,22.65
2023-04-01T13:46:27.405Z,22.48
2023-04-01T14:15:23.694Z,22.36
2023-04-01T14:44:15.161Z,22.25
2023-04-01T15:12:57.549Z,22.18
2023-04-01T15:41:39.039Z,22.11
2023-04-01T16:10:35.176Z,22.01
2023-04-01T16:39:08.981Z,21.94
2023-04-01T17:07:57.082Z,21.87
2023-04-01T17:36:47.475Z,21.8
2023-04-01T18:05:33.353Z,21.75
2023-04-01T18:34:22.646Z,21.72
2023-04-01T19:03:09.818Z,21.67
2023-04-01T19:31:56.775Z,21.64
2023-04-01T20:00:50.175Z,21.62
2023-04-01T20:29:41.848Z,21.57
2023-04-01T20:58:35.810Z,21.55
2023-04-01T21:27:25.039Z,21.51
2023-04-01T21:56:21.553Z,21.48
2023-04-01T22:25:23.994Z,21.44
2023-04-01T22:54:24.977Z,21.4
2023-04-01T23:23:25.845Z,21.38
2023-04-01T23:52:25.876Z,21.34
